Spartanburg, South Carolina
Current Conditions -  °F | °C
As of 8:55 PM on Saturday 20 Dec 2014 (Local Time) from KSPA Reporting Station
Broken Clouds Broken Clouds  
Wind Chill: 45°   Ceiling: 1900
Heat Index: 45°   Visibility: 7mi
Dew Point: 45°   Wind: 0mph
Humidity: 100%   Direction: NA
Pressure: 30.23"   Gusts: NA
Location:  34.95°N, 81.93°W
Report Text: KSPA 210155Z AUTO 00000KT 7SM BKN019 07/07 A3023 RMK AO2
Loading
Personal Weather Stations






























Interactive Weather Map New forecast layout! Learn more

10-Day Weather Forecast

Advertisements
Track Severe Weather on mobile